Time;durP1;ratioP1;P1;durP2;ratioP2;P2;SDS_P1;SDS_P2;PMS_P1;PMS_P2;Temp;Humidity;BMP_temperature;BMP_pressure;BME280_temperature;BME280_humidity;BME280_pressure;Samples;Min_cycle;Max_cycle;Signal;HPM_P1;HPM_P2
2023/04/06 00:01:20;;;;;;;28.60;18.10;;;;;;;24.38;34.95;99403.67;108047;1253;60428;-68
2023/04/06 00:03:49;;;;;;;34.10;18.00;;;;;;;24.62;34.60;99405.13;108016;1254;73428;-66
2023/04/06 00:06:16;;;;;;;32.30;17.90;;;;;;;24.54;34.62;99402.21;108005;1254;71679;-68
2023/04/06 00:08:44;;;;;;;29.40;16.80;;;;;;;24.61;34.52;99401.86;107983;1254;72643;-67
2023/04/06 00:11:11;;;;;;;32.70;17.90;;;;;;;24.89;34.21;99398.38;108049;1254;60791;-66
2023/04/06 00:13:38;;;;;;;26.90;17.50;;;;;;;25.00;34.09;99399.05;107967;1254;60336;-66
2023/04/06 00:16:05;;;;;;;31.50;18.10;;;;;;;24.93;34.18;99399.23;107989;1254;73453;-67
2023/04/06 00:18:32;;;;;;;29.80;17.90;;;;;;;25.01;34.13;99398.41;108037;1254;70255;-68
2023/04/06 00:20:59;;;;;;;29.50;17.00;;;;;;;25.18;33.98;99393.79;107964;1254;71860;-68
2023/04/06 00:23:26;;;;;;;33.40;18.20;;;;;;;25.32;33.78;99393.52;107988;1254;62484;-67
2023/04/06 00:25:53;;;;;;;30.80;17.00;;;;;;;25.06;34.10;99393.66;107967;1254;60549;-67
2023/04/06 00:28:25;;;;;;;28.80;17.70;;;;;;;24.98;34.25;99393.47;107964;1258;73216;-68
2023/04/06 00:30:55;;;;;;;29.00;18.30;;;;;;;25.16;34.09;99386.17;107824;1254;70839;-65
2023/04/06 00:33:22;;;;;;;30.40;19.10;;;;;;;25.13;34.23;99389.14;107836;1254;73792;-66
2023/04/06 00:35:49;;;;;;;33.20;18.20;;;;;;;25.23;34.04;99384.98;107828;1254;60841;-66
2023/04/06 00:38:16;;;;;;;37.90;19.00;;;;;;;25.39;33.87;99389.41;108113;1254;60909;-67
2023/04/06 00:40:44;;;;;;;32.50;18.40;;;;;;;25.35;33.92;99385.36;108001;1254;75103;-67
2023/04/06 00:43:11;;;;;;;31.80;17.50;;;;;;;25.30;33.97;99382.98;107989;1254;71527;-67
2023/04/06 00:45:39;;;;;;;29.70;17.60;;;;;;;25.30;34.06;99379.05;108005;1254;71443;-66
2023/04/06 00:48:06;;;;;;;30.90;17.20;;;;;;;25.13;34.32;99378.89;107999;1254;61932;-68
2023/04/06 00:50:34;;;;;;;31.90;18.50;;;;;;;24.54;35.18;99379.73;108026;1254;61451;-66
2023/04/06 00:53:01;;;;;;;32.20;18.60;;;;;;;24.92;34.67;99378.87;107907;1254;75047;-66
2023/04/06 00:55:30;;;;;;;32.30;18.70;;;;;;;24.84;34.68;99378.73;108142;1253;71760;-67
2023/04/06 00:57:58;;;;;;;32.50;18.70;;;;;;;24.50;35.29;99379.82;108075;1253;73401;-66
2023/04/06 01:00:30;;;;;;;29.70;18.00;;;;;;;24.47;35.33;99374.95;108096;1253;61933;-67
2023/04/06 01:03:13;;;;;;;35.50;20.40;;;;;;;24.14;35.90;99373.98;108044;1253;61510;-66
2023/04/06 01:05:43;;;;;;;34.40;19.10;;;;;;;24.29;35.67;99375.27;108198;1253;74731;-68
2023/04/06 01:08:18;;;;;;;35.50;21.50;;;;;;;24.57;35.21;99371.73;108152;1253;68186;-67
2023/04/06 01:10:45;;;;;;;34.30;19.70;;;;;;;24.49;35.29;99374.20;108103;1253;73907;-67
2023/04/06 01:13:22;;;;;;;31.40;18.90;;;;;;;24.59;35.33;99370.02;108138;1253;62911;-68
2023/04/06 01:15:54;;;;;;;36.10;20.80;;;;;;;24.79;34.92;99368.10;108111;1254;60813;-67
2023/04/06 01:18:28;;;;;;;35.40;19.20;;;;;;;24.84;34.91;99369.19;108091;1253;74018;-68
2023/04/06 01:21:02;;;;;;;34.70;19.40;;;;;;;24.72;34.99;99370.41;108158;1253;70976;-67
2023/04/06 01:23:29;;;;;;;33.40;18.90;;;;;;;24.34;35.40;99371.64;108166;1253;72790;-67
2023/04/06 01:25:56;;;;;;;32.20;18.80;;;;;;;24.01;36.03;99371.40;108130;1253;62063;-66
2023/04/06 01:28:24;;;;;;;33.70;18.50;;;;;;;24.21;35.85;99365.34;108144;1253;61540;-66
2023/04/06 01:30:55;;;;;;;33.60;18.40;;;;;;;24.19;35.74;99364.66;108098;1254;73739;-67
2023/04/06 01:33:41;;;;;;;31.70;18.20;;;;;;;24.13;35.87;99370.83;108036;1253;71544;-66
2023/04/06 01:36:11;;;;;;;32.40;18.20;;;;;;;24.07;35.88;99374.71;108042;1256;72780;-66
2023/04/06 01:38:41;;;;;;;33.80;18.70;;;;;;;23.86;36.13;99373.34;108001;1253;63175;-67
2023/04/06 01:41:08;;;;;;;33.90;18.50;;;;;;;23.54;36.65;99370.45;108033;1253;60407;-67
2023/04/06 01:43:45;;;;;;;35.70;19.00;;;;;;;23.89;36.15;99366.36;108043;1253;72620;-67
2023/04/06 01:46:13;;;;;;;32.90;19.40;;;;;;;23.86;36.15;99363.83;108135;1256;69359;-67
2023/04/06 01:48:42;;;;;;;31.20;17.70;;;;;;;24.10;35.99;99363.46;108102;1253;73813;-67
2023/04/06 01:51:31;;;;;;;32.00;18.70;;;;;;;24.08;35.84;99360.80;108059;1253;61961;-67
2023/04/06 01:54:00;;;;;;;31.30;17.00;;;;;;;24.18;35.69;99360.27;108116;1253;60295;-66
2023/04/06 01:56:37;;;;;;;29.20;18.10;;;;;;;24.49;35.26;99358.02;108084;1253;75162;-65
2023/04/06 01:59:13;;;;;;;30.70;18.30;;;;;;;24.45;35.24;99357.73;108102;1253;70680;-66
2023/04/06 02:01:42;;;;;;;33.40;18.20;;;;;;;24.02;35.83;99362.61;108141;1253;72421;-67
2023/04/06 02:04:10;;;;;;;32.80;18.10;;;;;;;23.88;36.07;99363.54;108074;1253;61619;-67
2023/04/06 02:06:37;;;;;;;32.00;17.90;;;;;;;24.00;35.97;99362.29;108095;1253;60423;-66
2023/04/06 02:09:05;;;;;;;29.70;17.20;;;;;;;24.15;35.74;99360.72;108010;1253;74028;-68
2023/04/06 02:11:32;;;;;;;32.20;18.20;;;;;;;24.33;35.43;99360.63;107984;1253;69426;-65
2023/04/06 02:14:06;;;;;;;32.20;18.40;;;;;;;24.68;34.77;99352.38;108058;1256;71873;-66
2023/04/06 02:16:47;;;;;;;30.60;17.60;;;;;;;24.51;35.13;99353.52;108022;1253;62688;-66
2023/04/06 02:19:14;;;;;;;31.90;18.50;;;;;;;24.79;34.74;99350.15;108040;1253;60706;-66
2023/04/06 02:21:47;;;;;;;32.40;17.80;;;;;;;24.49;35.16;99353.23;108080;1253;73345;-67
2023/04/06 02:24:14;;;;;;;29.70;17.80;;;;;;;24.36;35.43;99350.79;108015;1253;70303;-67
2023/04/06 02:26:41;;;;;;;30.40;17.90;;;;;;;24.47;35.30;99343.70;108036;1253;72809;-67
2023/04/06 02:32:13;;;;;;;28.50;17.20;;;;;;;20.00;43.22;99346.60;104958;1289;600614;-67
2023/04/06 02:34:41;;;;;;;30.60;18.00;;;;;;;21.66;40.31;99346.95;107343;1263;61726;-66
2023/04/06 02:37:11;;;;;;;30.70;17.50;;;;;;;21.74;40.31;99347.41;107302;1263;60560;-68
2023/04/06 02:39:40;;;;;;;29.10;17.70;;;;;;;21.88;40.08;99345.63;107709;1257;72505;-68
2023/04/06 02:42:09;;;;;;;30.00;17.10;;;;;;;22.24;39.90;99342.35;107869;1260;71656;-68
2023/04/06 02:44:37;;;;;;;31.20;17.00;;;;;;;22.55;39.27;99339.83;107716;1262;72392;-68
2023/04/06 02:47:05;;;;;;;32.60;17.40;;;;;;;22.81;39.03;99340.46;107661;1256;62087;-67
2023/04/06 02:49:33;;;;;;;31.50;17.10;;;;;;;22.78;39.04;99341.45;107735;1256;61311;-67
2023/04/06 02:52:02;;;;;;;32.20;17.00;;;;;;;22.86;38.77;99339.10;107947;1256;71337;-66
2023/04/06 02:54:34;;;;;;;31.40;17.90;;;;;;;22.84;38.98;99339.25;107931;1257;69892;-68
2023/04/06 02:57:02;;;;;;;31.20;17.80;;;;;;;22.95;39.00;99334.79;107891;1257;71650;-67
2023/04/06 02:59:38;;;;;;;32.90;19.00;;;;;;;22.97;38.91;99335.25;107610;1262;62092;-68
2023/04/06 03:02:16;;;;;;;28.60;17.20;;;;;;;22.99;38.84;99332.18;107840;1257;61322;-68
2023/04/06 03:04:45;;;;;;;28.80;17.50;;;;;;;23.23;38.43;99334.65;107874;1257;73993;-68
2023/04/06 03:07:24;;;;;;;34.30;17.80;;;;;;;23.30;38.26;99336.02;107847;1256;69676;-67
2023/04/06 03:09:53;;;;;;;36.70;19.00;;;;;;;23.39;38.15;99334.44;107759;1257;71574;-69
2023/04/06 03:12:22;;;;;;;30.20;18.50;;;;;;;23.25;38.41;99335.90;107809;1256;63047;-67
2023/04/06 03:15:11;;;;;;;31.20;17.80;;;;;;;22.88;38.99;99336.52;107779;1257;61089;-67
2023/04/06 03:17:42;;;;;;;29.10;18.60;;;;;;;23.06;38.66;99329.87;107971;1257;74099;-67
2023/04/06 03:20:17;;;;;;;32.40;18.80;;;;;;;23.21;38.48;99332.85;107966;1256;71295;-67
2023/04/06 03:22:50;;;;;;;29.70;18.50;;;;;;;23.28;38.23;99333.92;107848;1261;73865;-67
2023/04/06 03:25:20;;;;;;;32.80;18.30;;;;;;;23.36;38.14;99335.50;107858;1256;63184;-69
2023/04/06 03:27:48;;;;;;;28.60;17.70;;;;;;;23.43;37.91;99330.27;107958;1256;60568;-67
2023/04/06 03:30:18;;;;;;;29.50;17.90;;;;;;;23.41;37.88;99336.92;107917;1257;73899;-70
2023/04/06 03:32:48;;;;;;;32.20;18.20;;;;;;;23.56;37.71;99334.58;107861;1257;69676;-67
2023/04/06 03:35:16;;;;;;;27.80;17.30;;;;;;;23.58;37.50;99341.55;107935;1257;73457;-68
2023/04/06 03:37:47;;;;;;;33.40;17.80;;;;;;;23.63;37.48;99344.00;107809;1256;62080;-67
2023/04/06 03:40:15;;;;;;;30.10;17.40;;;;;;;23.69;37.54;99344.77;107837;1256;60953;-69
2023/04/06 03:42:44;;;;;;;32.00;18.00;;;;;;;23.72;37.36;99345.50;107899;1256;73291;-69
2023/04/06 03:45:13;;;;;;;32.90;17.30;;;;;;;23.74;37.34;99342.35;107952;1256;71247;-67
2023/04/06 03:47:46;;;;;;;35.20;18.90;;;;;;;23.67;37.37;99339.77;107779;1262;72921;-67
2023/04/06 03:50:15;;;;;;;28.10;17.20;;;;;;;23.80;37.25;99343.67;107922;1260;61660;-67
2023/04/06 03:52:47;;;;;;;30.30;17.10;;;;;;;23.70;37.27;99338.71;107758;1257;59660;-67
2023/04/06 03:55:16;;;;;;;29.60;16.90;;;;;;;23.49;37.51;99333.40;107876;1260;74324;-68
2023/04/06 03:57:44;;;;;;;27.30;16.60;;;;;;;23.42;37.69;99335.23;107885;1256;71503;-67
2023/04/06 04:00:15;;;;;;;29.50;17.20;;;;;;;23.28;37.98;99334.88;107850;1256;73615;-67
2023/04/06 04:02:44;;;;;;;29.50;17.60;;;;;;;23.23;38.00;99337.33;107943;1261;61625;-68
2023/04/06 04:05:13;;;;;;;31.40;17.60;;;;;;;23.26;38.05;99340.79;107839;1256;61302;-68
2023/04/06 04:07:43;;;;;;;28.50;17.30;;;;;;;23.46;37.75;99339.94;108116;1253;73270;-68
2023/04/06 04:10:13;;;;;;;27.90;16.70;;;;;;;23.44;37.82;99343.92;108156;1253;70751;-69
2023/04/06 04:12:42;;;;;;;33.40;18.20;;;;;;;23.31;37.91;99344.50;108077;1253;71965;-69
2023/04/06 04:15:15;;;;;;;34.80;17.50;;;;;;;23.60;37.53;99344.96;108188;1254;61007;-66
2023/04/06 04:17:56;;;;;;;31.70;17.80;;;;;;;23.77;37.27;99348.11;108185;1252;61302;-69
2023/04/06 04:20:25;;;;;;;33.50;18.20;;;;;;;23.72;37.32;99346.47;108181;1256;74271;-67
2023/04/06 04:22:57;;;;;;;30.40;17.90;;;;;;;23.76;37.20;99352.84;108189;1253;71145;-67
2023/04/06 04:25:25;;;;;;;31.40;17.70;;;;;;;23.85;37.12;99350.48;108133;1257;73140;-68
2023/04/06 04:27:54;;;;;;;32.10;17.40;;;;;;;23.91;37.01;99351.39;108196;1253;61001;-67
2023/04/06 04:30:23;;;;;;;29.50;15.40;;;;;;;24.11;36.54;99349.65;108254;1254;61552;-68
2023/04/06 04:32:51;;;;;;;27.90;16.70;;;;;;;24.10;36.65;99349.07;108155;1253;73258;-68
2023/04/06 04:35:21;;;;;;;25.20;16.10;;;;;;;24.08;36.72;99356.83;108185;1254;69516;-69
2023/04/06 04:37:51;;;;;;;24.30;15.20;;;;;;;24.30;36.29;99355.95;108179;1256;72993;-66
2023/04/06 04:40:20;;;;;;;24.90;15.50;;;;;;;24.29;36.23;99354.38;108186;1256;62294;-67
2023/04/06 04:42:52;;;;;;;25.40;15.30;;;;;;;23.89;36.75;99356.98;108149;1253;59362;-67
2023/04/06 04:45:30;;;;;;;25.40;14.60;;;;;;;24.00;36.68;99363.70;108140;1253;72123;-68
2023/04/06 04:48:01;;;;;;;26.30;15.10;;;;;;;23.92;36.53;99362.98;108152;1253;71019;-68
2023/04/06 04:50:36;;;;;;;27.90;16.20;;;;;;;24.13;36.31;99368.14;108153;1256;73997;-67
2023/04/06 04:53:07;;;;;;;29.50;16.10;;;;;;;24.17;36.32;99373.98;108172;1253;63097;-69
2023/04/06 04:55:35;;;;;;;;;;;;;;;24.22;36.08;99378.54;108266;1256;61646;-68
2023/04/06 04:58:04;;;;;;;28.30;14.60;;;;;;;24.21;36.08;99377.02;108296;1252;74023;-68
2023/04/06 05:00:46;;;;;;;27.10;15.50;;;;;;;23.98;36.23;99383.34;108242;1256;69644;-68
2023/04/06 05:03:21;;;;;;;24.60;15.90;;;;;;;24.03;36.17;99376.84;108183;1254;73698;-68
2023/04/06 05:05:57;;;;;;;27.70;14.50;;;;;;;24.04;36.34;99377.33;108097;1254;62897;-68
2023/04/06 05:08:26;;;;;;;25.30;14.60;;;;;;;24.08;36.22;99376.70;108219;1254;60926;-68
2023/04/06 05:10:58;;;;;;;26.80;14.70;;;;;;;24.37;35.98;99376.34;108033;1254;73412;-68
2023/04/06 05:13:30;;;;;;;20.60;13.50;;;;;;;24.64;35.55;99378.21;108110;1256;70447;-66
2023/04/06 05:15:58;;;;;;;21.00;13.20;;;;;;;24.58;35.50;99382.16;108184;1256;73184;-67
2023/04/06 05:18:30;;;;;;;24.40;13.60;;;;;;;24.15;36.14;99378.30;107934;1254;62965;-67
2023/04/06 05:20:59;;;;;;;23.50;13.50;;;;;;;24.05;36.34;99383.65;107926;1254;61213;-67
2023/04/06 05:23:33;;;;;;;23.00;14.20;;;;;;;24.01;36.40;99381.15;108115;1257;72977;-67
2023/04/06 05:26:02;;;;;;;22.30;13.80;;;;;;;24.26;36.28;99377.88;108149;1254;70717;-66
2023/04/06 05:28:30;;;;;;;22.10;13.60;;;;;;;24.46;35.97;99376.06;108043;1259;72913;-67
2023/04/06 05:31:00;;;;;;;23.60;14.30;;;;;;;24.70;35.70;99363.64;108024;1254;62355;-68
2023/04/06 05:33:33;;;;;;;26.30;14.20;;;;;;;24.60;35.67;99373.89;108247;1252;59986;-68
2023/04/06 05:36:11;;;;;;;26.60;12.70;;;;;;;24.77;35.35;99374.58;108068;1257;73511;-67
2023/04/06 05:38:45;;;;;;;24.00;14.40;;;;;;;25.04;35.32;99366.09;108244;1254;70571;-68
2023/04/06 05:41:34;;;;;;;25.70;13.30;;;;;;;25.17;35.27;99366.30;108175;1254;72063;-68
2023/04/06 05:44:02;;;;;;;23.90;13.80;;;;;;;25.13;35.31;99368.98;108138;1256;60686;-67
2023/04/06 05:46:30;;;;;;;21.50;13.40;;;;;;;25.16;35.10;99371.04;108206;1254;61131;-69
2023/04/06 05:49:00;;;;;;;27.50;13.60;;;;;;;25.19;35.28;99367.90;108221;1254;73340;-68
2023/04/06 05:51:31;;;;;;;22.90;13.20;;;;;;;24.81;35.63;99371.27;108144;1253;71396;-68
2023/04/06 05:53:59;;;;;;;24.30;13.20;;;;;;;25.08;35.19;99370.71;108202;1253;71639;-68
2023/04/06 05:56:30;;;;;;;22.80;13.00;;;;;;;25.36;34.69;99370.05;108064;1259;63191;-67
2023/04/06 05:58:58;;;;;;;25.30;13.40;;;;;;;25.63;34.22;99374.42;107952;1254;60686;-67
2023/04/06 06:01:30;;;;;;;29.50;13.90;;;;;;;25.81;33.99;99369.40;108112;1254;73207;-68
2023/04/06 06:04:01;;;;;;;27.70;12.70;;;;;;;25.70;34.00;99372.78;108129;1257;69373;-68
2023/04/06 06:06:32;;;;;;;22.20;12.20;;;;;;;25.60;34.06;99371.37;108139;1257;74368;-66
2023/04/06 06:09:09;;;;;;;25.60;12.40;;;;;;;25.42;34.23;99373.43;108142;1255;62254;-68
2023/04/06 06:11:44;;;;;;;26.00;13.00;;;;;;;25.36;34.29;99369.03;108145;1254;59637;-68
2023/04/06 06:14:14;;;;;;;24.90;12.10;;;;;;;25.26;34.63;99372.30;108129;1256;73313;-68
2023/04/06 06:16:42;;;;;;;24.50;12.10;;;;;;;25.07;34.77;99376.02;108029;1255;71013;-69
2023/04/06 06:19:12;;;;;;;26.20;11.60;;;;;;;24.57;35.61;99382.16;108094;1254;73513;-68
2023/04/06 06:21:41;;;;;;;29.00;11.70;;;;;;;25.22;35.16;99381.88;108117;1253;61139;-68
2023/04/06 06:24:10;;;;;;;23.10;10.70;;;;;;;26.06;34.13;99376.61;108181;1253;59704;-68
2023/04/06 06:26:39;;;;;;;22.90;13.40;;;;;;;26.99;33.43;99371.36;107980;1253;73143;-68
2023/04/06 06:29:12;;;;;;;24.40;14.50;;;;;;;27.28;32.40;99372.99;108102;1254;71201;-67
2023/04/06 06:31:41;;;;;;;21.60;12.60;;;;;;;27.43;31.93;99375.83;108097;1254;73709;-68
2023/04/06 06:34:10;;;;;;;20.70;11.30;;;;;;;27.27;31.66;99375.06;108004;1259;63042;-70
2023/04/06 06:36:39;;;;;;;25.30;10.70;;;;;;;27.17;31.54;99372.77;108017;1260;60185;-69
2023/04/06 06:39:09;;;;;;;21.10;11.90;;;;;;;27.11;31.45;99378.69;108109;1256;74513;-69
2023/04/06 06:41:37;;;;;;;23.20;11.70;;;;;;;26.79;32.10;99377.84;107972;1255;69817;-68
2023/04/06 06:44:06;;;;;;;20.40;10.40;;;;;;;27.03;31.80;99376.88;108076;1254;72923;-69
2023/04/06 06:46:41;;;;;;;27.80;12.40;;;;;;;26.82;31.82;99375.68;108071;1255;63022;-69
2023/04/06 06:49:12;;;;;;;26.50;12.20;;;;;;;26.78;32.13;99378.09;108049;1253;60366;-69
2023/04/06 06:51:40;;;;;;;22.30;11.70;;;;;;;26.71;32.15;99379.98;108041;1254;73196;-68
2023/04/06 06:54:08;;;;;;;24.10;12.30;;;;;;;26.57;32.41;99381.56;108065;1256;71238;-68
2023/04/06 06:56:37;;;;;;;26.90;12.90;;;;;;;26.54;32.45;99386.15;108018;1254;71757;-70
2023/04/06 06:59:07;;;;;;;17.90;10.80;;;;;;;26.46;32.49;99393.27;108105;1253;61551;-68
2023/04/06 07:01:36;;;;;;;25.10;10.80;;;;;;;26.40;32.59;99397.28;108116;1254;60288;-68
2023/04/06 07:04:05;;;;;;;19.90;11.50;;;;;;;26.54;32.43;99396.03;108169;1257;73296;-68
2023/04/06 07:06:39;;;;;;;22.60;11.80;;;;;;;26.36;32.66;99392.42;108313;1254;69591;-69
2023/04/06 07:09:09;;;;;;;21.70;12.10;;;;;;;26.30;32.89;99394.96;108259;1252;73894;-66
2023/04/06 07:11:37;;;;;;;23.00;11.20;;;;;;;26.21;33.08;99396.02;108319;1254;62198;-68
2023/04/06 07:14:06;;;;;;;27.10;12.40;;;;;;;26.13;33.14;99393.36;108142;1254;60309;-68
2023/04/06 07:16:38;;;;;;;;;;;;;;;25.98;33.17;99393.55;108347;1254;73045;-68
2023/04/06 07:19:06;;;;;;;23.60;11.00;;;;;;;26.13;32.99;99396.02;108157;1254;68533;-69
2023/04/06 07:21:36;;;;;;;21.50;10.80;;;;;;;26.31;32.85;99403.13;108198;1253;72653;-66
2023/04/06 07:24:04;;;;;;;20.30;11.40;;;;;;;26.35;32.83;99407.16;108196;1254;63235;-66
2023/04/06 07:26:33;;;;;;;30.50;11.50;;;;;;;26.58;32.42;99401.27;108306;1252;60903;-69
2023/04/06 07:29:03;;;;;;;25.80;11.80;;;;;;;26.68;32.59;99401.77;108164;1258;74483;-67
2023/04/06 07:31:32;;;;;;;24.70;11.90;;;;;;;27.08;31.91;99400.54;108291;1252;71518;-66
2023/04/06 07:34:01;;;;;;;20.80;11.50;;;;;;;27.13;31.99;99403.67;107980;1255;72078;-69
2023/04/06 07:36:35;;;;;;;17.50;10.70;;;;;;;26.90;32.18;99403.01;108305;1253;62876;-67
2023/04/06 07:39:04;;;;;;;18.80;11.30;;;;;;;27.04;32.00;99401.34;108308;1254;59486;-69
2023/04/06 07:41:32;;;;;;;23.70;11.00;;;;;;;26.40;33.18;99400.35;108280;1254;74284;-67
2023/04/06 07:44:01;;;;;;;22.00;11.70;;;;;;;26.32;33.69;99402.73;108302;1254;70715;-69
2023/04/06 07:46:29;;;;;;;31.40;12.70;;;;;;;26.53;33.77;99395.43;108133;1254;73931;-68
2023/04/06 07:49:03;;;;;;;;;;;;;;;26.56;33.82;99401.73;108293;1254;63379;-68
2023/04/06 08:57:56;;;;;;;16.60;9.00;;;;;;;18.41;59.56;99405.51;104882;1292;616064;-92
2023/04/06 09:00:23;;;;;;;17.40;9.10;;;;;;;20.71;50.87;99396.58;108294;1267;60378;-91
2023/04/06 09:02:53;;;;;;;17.80;8.10;;;;;;;20.90;49.05;99399.09;107716;1265;61530;-93
2023/04/06 09:05:21;;;;;;;18.00;8.10;;;;;;;20.92;48.32;99396.66;107464;1265;72681;-92
2023/04/06 09:07:48;;;;;;;18.20;8.40;;;;;;;21.11;47.82;99398.30;107481;1267;71478;-93
2023/04/06 09:10:18;;;;;;;13.80;7.30;;;;;;;21.37;47.28;99398.02;107410;1264;221308;-94
2023/04/06 09:13:07;;;;;;;16.00;7.30;;;;;;;21.33;47.05;99401.21;108051;1264;60923;-93
2023/04/06 09:15:46;;;;;;;17.70;7.40;;;;;;;21.12;48.06;99407.48;108257;1263;61343;-92
2023/04/06 09:18:31;;;;;;;19.00;7.60;;;;;;;21.00;48.86;99413.02;107709;1264;72157;-93
2023/04/06 09:21:02;;;;;;;19.60;7.70;;;;;;;21.01;49.50;99414.69;108128;1259;71162;-92
2023/04/06 09:23:33;;;;;;;22.40;8.70;;;;;;;21.11;49.93;99423.58;108145;1259;72716;-93
2023/04/06 09:26:13;;;;;;;14.60;7.80;;;;;;;20.92;50.92;99425.23;107958;1260;63472;-92
2023/04/06 09:28:56;;;;;;;16.20;7.80;;;;;;;20.82;51.76;99433.60;107676;1260;60104;-93
2023/04/06 09:31:30;;;;;;;17.80;7.70;;;;;;;20.54;52.61;99449.46;107759;1260;73366;-92
2023/04/06 09:33:58;;;;;;;15.40;8.20;;;;;;;20.40;53.90;99449.06;107740;1260;70289;-91
2023/04/06 09:36:33;;;;;;;13.50;8.10;;;;;;;20.40;54.18;99453.23;108142;1261;73894;-91
2023/04/06 09:39:04;;;;;;;20.60;8.10;;;;;;;20.40;54.19;99457.05;107823;1259;61775;-92
2023/04/06 09:42:08;;;;;;;17.20;8.20;;;;;;;20.39;54.78;99461.81;108400;1260;61364;-91
2023/04/06 09:44:54;;;;;;;18.50;9.10;;;;;;;20.60;54.83;99463.02;107978;1259;74118;-91
2023/04/06 09:47:27;;;;;;;14.30;8.00;;;;;;;20.51;55.48;99464.02;107768;1260;70747;-90
2023/04/06 09:50:01;;;;;;;18.50;9.50;;;;;;;20.51;55.47;99464.13;107723;1259;72811;-91
2023/04/06 09:52:37;;;;;;;18.70;10.50;;;;;;;20.51;56.30;99468.77;107771;1261;61452;-92
2023/04/06 09:55:05;;;;;;;16.50;9.20;;;;;;;20.49;56.10;99471.83;107845;1261;59988;-92
2023/04/06 09:58:06;;;;;;;21.70;10.60;;;;;;;20.86;54.91;99467.77;107695;1259;72027;-92
2023/04/06 10:00:41;;;;;;;21.10;9.50;;;;;;;20.66;56.23;99471.39;107729;1260;71327;-92
2023/04/06 10:03:38;;;;;;;15.80;8.70;;;;;;;20.59;55.89;99477.40;107853;1259;72088;-92
2023/04/06 10:06:10;;;;;;;19.20;9.50;;;;;;;20.39;56.31;99476.08;107805;1260;61991;-92
2023/04/06 10:08:47;;;;;;;23.80;9.90;;;;;;;20.27;56.72;99474.27;107746;1260;59521;-92
2023/04/06 10:11:18;;;;;;;15.80;9.10;;;;;;;20.22;56.98;99466.90;107878;1260;72897;-92
2023/04/06 10:13:47;;;;;;;17.80;9.00;;;;;;;20.43;55.87;99474.65;107933;1260;69771;-92
2023/04/06 10:16:14;;;;;;;18.60;9.40;;;;;;;20.52;55.72;99477.05;107746;1260;71041;-93
2023/04/06 10:18:51;;;;;;;20.00;9.80;;;;;;;20.75;54.98;99475.58;108062;1260;61809;-92
2023/04/06 10:21:20;;;;;;;;;;;;;;;20.72;55.04;99479.61;108470;1252;59978;-91
2023/04/06 10:23:52;;;;;;;15.40;7.80;;;;;;;20.78;54.65;99478.52;108461;1252;73831;-92
2023/04/06 10:26:20;;;;;;;19.10;8.40;;;;;;;20.74;54.91;99480.16;108416;1253;70427;-91
2023/04/06 10:28:49;;;;;;;17.00;8.90;;;;;;;20.79;54.79;99482.92;108683;1253;73550;-92
2023/04/06 10:31:26;;;;;;;16.30;8.10;;;;;;;20.92;54.42;99485.67;108503;1252;61766;-92
2023/04/06 10:34:02;;;;;;;14.40;9.40;;;;;;;20.98;54.45;99489.71;108284;1253;59357;-92
2023/04/06 10:36:33;;;;;;;17.40;8.70;;;;;;;20.73;55.23;99490.91;108493;1253;74110;-90
2023/04/06 10:39:10;;;;;;;27.00;8.60;;;;;;;20.81;54.92;99495.54;108474;1253;70226;-92
2023/04/06 10:41:42;;;;;;;25.70;9.80;;;;;;;20.97;54.40;99492.53;108321;1253;73895;-91
2023/04/06 10:44:21;;;;;;;14.70;8.00;;;;;;;20.93;54.51;99501.06;108342;1254;60020;-91
2023/04/06 10:46:55;;;;;;;17.20;8.70;;;;;;;20.80;54.56;99500.48;108469;1252;60169;-92
2023/04/06 10:49:25;;;;;;;16.70;9.20;;;;;;;20.79;54.96;99503.81;109185;1253;72322;-89
2023/04/06 10:52:00;;;;;;;20.70;9.00;;;;;;;20.31;56.05;99501.36;109579;1252;69147;-92
2023/04/06 10:54:28;;;;;;;14.90;8.80;;;;;;;20.34;56.29;99505.73;109622;1254;71275;-90
2023/04/06 10:56:56;;;;;;;19.10;9.20;;;;;;;20.57;55.77;99513.38;109587;1252;61007;-90
2023/04/06 10:59:25;;;;;;;20.90;8.90;;;;;;;20.68;55.46;99521.64;109785;1252;58709;-90
2023/04/06 11:01:56;;;;;;;12.40;7.60;;;;;;;20.76;55.15;99515.84;109742;1252;72058;-93
2023/04/06 11:04:24;;;;;;;22.30;9.00;;;;;;;21.02;54.37;99521.89;109636;1252;70599;-93
2023/04/06 11:06:54;;;;;;;21.20;9.60;;;;;;;20.74;55.17;99527.91;109402;1252;72696;-93
2023/04/06 11:09:26;;;;;;;16.30;9.00;;;;;;;21.07;54.51;99522.86;109356;1252;61767;-92
2023/04/06 11:11:53;;;;;;;18.70;10.30;;;;;;;21.14;54.41;99521.86;109283;1253;60608;-92
2023/04/06 11:14:26;;;;;;;22.70;10.10;;;;;;;21.27;54.19;99528.52;108728;1253;72190;-93
2023/04/06 11:16:53;;;;;;;22.90;10.10;;;;;;;20.99;54.85;99534.12;108472;1252;68356;-93
2023/04/06 11:19:21;;;;;;;22.20;10.50;;;;;;;20.75;55.67;99530.50;108394;1253;71869;-92
2023/04/06 11:21:56;;;;;;;19.00;11.10;;;;;;;20.29;57.08;99538.66;108582;1252;62018;-93
2023/04/06 11:24:40;;;;;;;24.90;12.10;;;;;;;20.32;57.28;99538.03;108916;1252;60236;-92
2023/04/06 11:27:15;;;;;;;22.70;12.10;;;;;;;20.22;57.82;99537.06;108563;1253;73895;-92
2023/04/06 11:29:43;;;;;;;16.30;11.00;;;;;;;20.33;57.54;99541.35;108338;1253;70763;-89
2023/04/06 11:32:21;;;;;;;23.30;12.20;;;;;;;20.48;56.93;99541.77;108397;1252;73906;-93
2023/04/06 11:35:00;;;;;;;16.50;10.90;;;;;;;20.92;55.63;99544.52;108753;1253;62993;-92
2023/04/06 11:37:38;;;;;;;17.40;12.40;;;;;;;21.20;55.08;99540.63;108513;1252;61428;-92
2023/04/06 11:40:09;;;;;;;22.80;12.60;;;;;;;21.28;54.65;99544.02;108707;1253;74248;-91
2023/04/06 11:42:40;;;;;;;24.20;14.10;;;;;;;21.41;54.50;99546.23;109345;1253;68993;-92
2023/04/06 11:45:26;;;;;;;23.90;12.10;;;;;;;21.44;54.51;99549.80;108749;1256;73021;-92
2023/04/06 11:47:59;;;;;;;19.00;12.50;;;;;;;21.30;54.72;99551.64;108359;1253;60166;-93
2023/04/06 11:50:35;;;;;;;17.80;12.50;;;;;;;21.36;54.97;99552.50;108382;1256;61586;-94
2023/04/06 11:53:04;;;;;;;20.60;11.50;;;;;;;21.20;55.30;99555.40;108253;1257;73499;-90
2023/04/06 11:55:38;;;;;;;18.30;12.30;;;;;;;21.27;55.10;99558.48;108357;1256;71651;-92
2023/04/06 11:58:09;;;;;;;18.00;12.40;;;;;;;21.45;54.67;99552.42;108629;1252;71553;-93
2023/04/06 12:00:37;;;;;;;19.60;11.30;;;;;;;21.12;55.48;99550.55;108402;1253;62700;-92
2023/04/06 12:03:15;;;;;;;22.60;12.60;;;;;;;20.86;56.57;99548.09;108435;1253;61561;-92
2023/04/06 12:05:49;;;;;;;22.60;13.60;;;;;;;20.93;56.95;99548.92;109047;1252;73328;-91
2023/04/06 12:08:31;;;;;;;31.70;17.60;;;;;;;20.84;57.21;99545.20;109069;1252;68854;-92
2023/04/06 12:10:59;;;;;;;40.50;22.10;;;;;;;21.17;56.00;99553.20;108716;1253;73059;-91
2023/04/06 12:13:28;;;;;;;156.20;76.40;;;;;;;21.11;55.84;99555.46;108373;1253;61957;-93
2023/04/06 12:15:55;;;;;;;30.30;17.50;;;;;;;20.98;56.37;99559.84;108237;1253;61540;-92
2023/04/06 12:18:23;;;;;;;25.00;13.00;;;;;;;21.20;56.29;99558.45;108298;1252;72827;-90
2023/04/06 12:20:53;;;;;;;20.00;12.80;;;;;;;21.10;56.53;99557.59;108257;1252;70541;-91
2023/04/06 12:23:22;;;;;;;16.50;10.10;;;;;;;21.14;56.27;99551.10;108285;1252;73682;-91
2023/04/06 12:25:55;;;;;;;13.40;9.10;;;;;;;21.04;56.33;99548.13;108050;1253;61625;-93
2023/04/06 12:28:26;;;;;;;13.50;8.30;;;;;;;20.87;56.38;99547.64;108199;1253;60398;-91
2023/04/06 12:30:54;;;;;;;13.10;8.40;;;;;;;20.78;56.28;99552.73;108619;1253;74391;-91
2023/04/06 12:33:25;;;;;;;12.70;8.40;;;;;;;20.78;56.51;99549.13;108568;1253;69140;-91
2023/04/06 12:35:57;;;;;;;14.50;7.90;;;;;;;20.76;56.51;99555.03;108555;1253;70947;-90
2023/04/06 12:38:29;;;;;;;20.90;12.20;;;;;;;20.63;56.76;99553.13;108807;1253;62661;-91
2023/04/06 12:41:18;;;;;;;14.60;8.40;;;;;;;20.49;57.03;99550.29;108342;1253;60393;-91